^^
Grace C. Lehan Memorial Weather Station Historical Data
Daily Summary for April 14, 2021 Units:  English    Metric   Both
Daily Weekly Monthly Yearly
  High: Low: Average:
Temperature: 89.5 °F 72.2 °F 80.1 °F
Dew Point: 78.2 °F 58.1 °F 70.2 °F
Humidity: 93.7% 46.7% 73%
Wind Speed: 5.7mph 0mph 0.9mph
Wind Gust: 17mph - -
Wind- - WNW
Pressure: 30.11 in 29.94 in -
Precipitation: 0.23 in    
 
 
Tabular Data for April 14, 2021
Time Temperature Dew Point Pressure Wind Wind Speed Wind Gust Humidity Rainfall Rate (Hourly) solar
00:00 81.7 °F 74.6 °F 29.97 in Calm     79% 0.00 in 0 W/m2
00:09 81.6 °F 74.1 °F 29.96 in Calm     78% 0.00 in 0 W/m2
00:14 81.6 °F 74.4 °F 29.97 in Calm     78.9% 0.00 in 0 W/m2
00:19 81.5 °F 74.4 °F 29.96 in Calm     79% 0.00 in 0 W/m2
00:24 81.5 °F 74.3 °F 29.96 in Calm     79% 0.00 in 0 W/m2
00:29 81.3 °F 74.2 °F 29.96 in Calm     79% 0.00 in 0 W/m2
00:34 81.2 °F 74.2 °F 29.96 in Calm     79.3% 0.00 in 0 W/m2
00:39 81.1 °F 74.3 °F 29.95 in Calm     80% 0.00 in 0 W/m2
00:44 80.9 °F 74.2 °F 29.95 in Calm     80% 0.00 in 0 W/m2
00:49 80.8 °F 74 °F 29.95 in Calm     80% 0.00 in 0 W/m2
00:54 80.6 °F 74 °F 29.95 in Calm     80.3% 0.00 in 0 W/m2
00:59 80.4 °F 74.1 °F 29.95 in Calm     81% 0.00 in 0 W/m2
01:04 80.3 °F 73.9 °F 29.95 in Calm     81% 0.00 in 0 W/m2
01:09 80.2 °F 73.8 °F 29.95 in Calm     81% 0.00 in 0 W/m2
01:14 80.1 °F 73.9 °F 29.95 in Calm     81.4% 0.00 in 0 W/m2
01:19 80 °F 74 °F 29.95 in Calm     82% 0.00 in 0 W/m2
01:24 79.8 °F 73.9 °F 29.95 in Calm     82% 0.00 in 0 W/m2
01:29 79.7 °F 74 °F 29.94 in Calm     82.7% 0.00 in 0 W/m2
01:34 79.7 °F 74 °F 29.94 in Calm     83% 0.00 in 0 W/m2
01:39 79.6 °F 74 °F 29.95 in Calm     83% 0.00 in 0 W/m2
01:44 79.5 °F 73.9 °F 29.94 in Calm     83% 0.00 in 0 W/m2
01:49 79.4 °F 73.8 °F 29.94 in Calm     83% 0.00 in 0 W/m2
01:54 79.3 °F 73.7 °F 29.94 in Calm     83% 0.00 in 0 W/m2
01:59 79.2 °F 73.6 °F 29.94 in Calm     83% 0.00 in 0 W/m2
02:04 79.1 °F 73.7 °F 29.94 in Calm     83.5% 0.00 in 0 W/m2
02:09 79 °F 73.8 °F 29.94 in Calm     84% 0.00 in 0 W/m2
02:14 78.9 °F 73.7 °F 29.94 in Calm     84% 0.00 in 0 W/m2
02:19 78.8 °F 73.6 °F 29.94 in Calm     84% 0.00 in 0 W/m2
02:24 78.7 °F 73.5 °F 29.94 in Calm     84% 0.00 in 0 W/m2
02:29 78.6 °F 73.5 °F 29.94 in Calm     84.3% 0.00 in 0 W/m2
02:34 78.5 °F 73.6 °F 29.94 in Calm     85% 0.00 in 0 W/m2
02:39 78.4 °F 73.5 °F 29.94 in Calm     85% 0.00 in 0 W/m2
02:44 78.4 °F 73.5 °F 29.94 in Calm     85% 0.00 in 0 W/m2
02:49 78.3 °F 73.5 °F 29.94 in Calm     85.2% 0.00 in 0 W/m2
02:54 78.2 °F 73.7 °F 29.94 in Calm     86% 0.00 in 0 W/m2
02:59 78.2 °F 73.6 °F 29.94 in Calm     86% 0.00 in 0 W/m2
03:04 78.1 °F 73.6 °F 29.94 in Calm     86% 0.00 in 0 W/m2
03:09 78 °F 73.5 °F 29.94 in Calm     86% 0.00 in 0 W/m2
03:14 77.9 °F 73.4 °F 29.94 in Calm     86% 0.00 in 0 W/m2
03:19 77.8 °F 73.3 °F 29.94 in Calm     86% 0.00 in 0 W/m2
03:24 77.7 °F 73.3 °F 29.94 in Calm     86.3% 0.00 in 0 W/m2
03:29 77.6 °F 73.5 °F 29.94 in Calm     87% 0.00 in 0 W/m2
03:34 77.5 °F 73.4 °F 29.94 in Calm     87% 0.00 in 0 W/m2
03:39 77.5 °F 73.3 °F 29.95 in Calm     87% 0.00 in 0 W/m2
03:44 77.4 °F 73.2 °F 29.95 in Calm     87% 0.00 in 0 W/m2
03:49 77.3 °F 73.1 °F 29.95 in Calm     87% 0.00 in 0 W/m2
03:54 77.2 °F 73 °F 29.95 in Calm     87% 0.00 in 0 W/m2
03:59 77.1 °F 73.1 °F 29.95 in Calm     87.4% 0.00 in 0 W/m2
04:00 77.1 °F 73.3 °F 29.95 in Calm     88% 0.00 in 0 W/m2
04:09 77 °F 73.2 °F 29.95 in Calm     88% 0.00 in 0 W/m2
04:14 77 °F 73.2 °F 29.95 in Calm     88% 0.00 in 0 W/m2
04:19 76.9 °F 73.1 °F 29.95 in Calm     88% 0.00 in 0 W/m2
04:24 76.9 °F 73.1 °F 29.95 in Calm     88% 0.00 in 0 W/m2
04:29 76.9 °F 73.1 °F 29.95 in Calm     88% 0.00 in 0 W/m2
04:34 76.9 °F 73.1 °F 29.95 in Calm     88% 0.00 in 0 W/m2
04:39 76.9 °F 73.1 °F 29.95 in Calm     88% 0.00 in 0 W/m2
04:44 76.8 °F 73 °F 29.95 in Calm     88% 0.00 in 0 W/m2
04:49 76.8 °F 73 °F 29.95 in Calm     88% 0.00 in 0 W/m2
04:54 76.8 °F 73.3 °F 29.95 in Calm     88.8% 0.00 in 0 W/m2
04:59 76.8 °F 73.3 °F 29.96 in Calm     89% 0.00 in 0 W/m2
05:04 76.8 °F 73.3 °F 29.96 in Calm     89% 0.00 in 0 W/m2
05:09 76.8 °F 73.3 °F 29.96 in Calm     89% 0.00 in 0 W/m2
05:14 76.7 °F 73.2 °F 29.96 in Calm     89% 0.00 in 0 W/m2
05:19 76.7 °F 73.2 °F 29.96 in Calm     89% 0.00 in 0 W/m2
05:24 76.7 °F 73.2 °F 29.96 in Calm     89% 0.00 in 0 W/m2
05:29 76.6 °F 73.1 °F 29.96 in Calm     89% 0.00 in 0 W/m2
05:34 76.5 °F 73.1 °F 29.96 in Calm     89% 0.00 in 0 W/m2
05:37 76.5 °F 73 °F 29.96 in Calm     89% 0.00 in 0 W/m2
06:00 76.2 °F 72.7 °F 29.97 in Calm     89% 0.00 in 0 W/m2
06:30 75.8 °F 72.3 °F 29.97 in Calm     89% 0.00 in 6 W/m2
07:00 76.8 °F 73 °F 29.97 in Calm     88% 0.00 in 80 W/m2
07:30 82.6 °F 74.7 °F 29.97 in Calm     77% 0.00 in 164 W/m2
08:04 84.1 °F 73.3 °F 29.98 in Calm     70.2% 0.00 in 130 W/m2
08:09 84.1 °F 73.6 °F 29.98 in Calm     71% 0.00 in 144 W/m2
08:14 83.9 °F 73.5 °F 29.98 in Calm   2 mph 71.1% 0.00 in 144 W/m2
08:19 83.6 °F 73 °F 29.99 in Calm   2 mph 70.5% 0.00 in 118 W/m2
08:24 83.3 °F 72.7 °F 29.99 in West 0.6 mph 5 mph 70.5% 0.00 in 86 W/m2
08:29 83 °F 72.6 °F 29.99 in WNW 0.2 mph 5 mph 71% 0.00 in 186 W/m2
08:34 82.7 °F 72.5 °F 29.99 in Calm   5 mph 71.2% 0.00 in 183 W/m2
08:39 82.8 °F 72.9 °F 29.99 in WNW 0.1 mph 2 mph 72.1% 0.00 in 480 W/m2
08:44 83 °F 72.8 °F 29.99 in Calm   2 mph 71.4% 0.00 in 497 W/m2
08:49 83.4 °F 73.8 °F 29.99 in Calm   2 mph 72.7% 0.00 in 497 W/m2
08:54 83.6 °F 72.8 °F 29.99 in Calm   2 mph 70% 0.00 in 111 W/m2
08:59 83.6 °F 73 °F 29.99 in Calm   2 mph 70.6% 0.00 in 98 W/m2
09:04 83.5 °F 73.3 °F 29.99 in Calm   2 mph 71.5% 0.00 in 130 W/m2
09:09 83.4 °F 73.4 °F 29.99 in Calm   1 mph 71.9% 0.00 in 130 W/m2
09:14 83.2 °F 73.3 °F 30.00 in Calm   2 mph 72% 0.00 in 69 W/m2
09:19 83.1 °F 74 °F 30.01 in WNW 0.3 mph 3 mph 74.3% 0.04 in 39 W/m2
09:24 82.8 °F 75 °F 30.02 in Calm   3 mph 77.5% 0.04 in 39 W/m2
09:29 82.1 °F 74.9 °F 30.02 in WNW 0.2 mph 3 mph 78.8% 0.05 in 32 W/m2
09:34 81.2 °F 74.4 °F 30.02 in WSW 0.3 mph 5 mph 79.9% 0.07 in 21 W/m2
09:39 80.4 °F 74.3 °F 30.02 in Calm   5 mph 81.6% 0.09 in 18 W/m2
09:44 79.7 °F 74.1 °F 30.02 in Calm   5 mph 83% 0.11 in 16 W/m2
09:49 79 °F 74 °F 30.02 in Calm   5 mph 84.6% 0.13 in 18 W/m2
09:54 78.5 °F 73.8 °F 30.02 in Calm   5 mph 85.5% 0.15 in 26 W/m2
09:59 78.1 °F 73.7 °F 30.02 in Calm   5 mph 86.3% 0.16 in 51 W/m2
10:04 77.7 °F 73.7 °F 30.02 in Calm   5 mph 87.6% 0.16 in 70 W/m2
10:09 77.4 °F 73.8 °F 30.02 in Calm   1 mph 88.8% 0.16 in 74 W/m2
10:14 77.3 °F 74.1 °F 30.03 in Calm   1 mph 89.9% 0.17 in 63 W/m2
10:19 77.2 °F 74 °F 30.03 in Calm   1 mph 90% 0.17 in 49 W/m2
10:24 77 °F 74.1 °F 30.03 in Calm   1 mph 90.9% 0.18 in 46 W/m2
10:29 76.7 °F 73.9 °F 30.03 in Calm   1 mph 90.8% 0.19 in 42 W/m2
10:34 76.5 °F 73.7 °F 30.03 in Calm   1 mph 91% 0.19 in 32 W/m2
10:39 76.3 °F 73.5 °F 30.02 in Calm     91% 0.16 in 25 W/m2
10:44 76.1 °F 73.3 °F 30.02 in Calm     91% 0.18 in 33 W/m2
10:49 76 °F 73.4 °F 30.01 in Calm     91.9% 0.18 in 49 W/m2
10:54 75.8 °F 73.3 °F 30.01 in Calm     92% 0.18 in 67 W/m2
10:59 75.8 °F 73.4 °F 30.01 in Calm     92.2% 0.18 in 130 W/m2
11:04 75.9 °F 73.7 °F 30.01 in Calm     93% 0.18 in 181 W/m2
11:09 76.1 °F 73.9 °F 30.01 in WSW 0.1 mph 1 mph 93% 0.07 in 178 W/m2
11:14 76.2 °F 74.1 °F 30.01 in Calm   1 mph 93% 0.07 in 144 W/m2
11:19 76.4 °F 74.4 °F 30.01 in Calm   1 mph 93.5% 0.07 in 174 W/m2
11:24 76.5 °F 74.3 °F 30.01 in Calm   1 mph 93% 0.07 in 338 W/m2
11:29 76.7 °F 74.8 °F 30.01 in Calm   1 mph 93.7% 0.07 in 274 W/m2
11:34 77 °F 74.9 °F 30.01 in WSW 0.1 mph 2 mph 93.3% 0.07 in 250 W/m2
11:39 76.9 °F 74.7 °F 30.01 in Calm   2 mph 92.8% 0.04 in 183 W/m2
11:44 77.1 °F 74.9 °F 30.01 in West 0.1 mph 2 mph 93% 0.04 in 877 W/m2
11:49 77.8 °F 75.8 °F 30.01 in West 0.7 mph 3 mph 93.5% 0.04 in 868 W/m2
11:54 78.4 °F 76.2 °F 30.01 in Calm   3 mph 93% 0.04 in 923 W/m2
11:59 79.3 °F 77 °F 30.01 in West 0.9 mph 6 mph 92.4% 0.04 in 958 W/m2
12:09 80.3 °F 76.4 °F 30.01 in West 0.9 mph 4 mph 88% 0.04 in 524 W/m2
12:14 80.9 °F 77.1 °F 30.01 in Calm   4 mph 88.4% 0.04 in 882 W/m2
12:19 81.4 °F 76.9 °F 30.01 in WSW 0.8 mph 5 mph 86.2% 0.04 in 877 W/m2
12:24 81.9 °F 76.9 °F 30.01 in WSW 1.4 mph 8 mph 84.8% 0.04 in 861 W/m2
12:29 82.2 °F 76.3 °F 30.01 in WSW 1.1 mph 8 mph 82.3% 0.04 in 865 W/m2
12:34 82.7 °F 76.3 °F 30.01 in WNW 0.6 mph 8 mph 81.1% 0.04 in 874 W/m2
12:39 83.4 °F 77.4 °F 30.01 in NW 0.8 mph 4 mph 82.2% 0.00 in 872 W/m2
12:44 84.1 °F 77.3 °F 30.01 in NW 0.8 mph 4 mph 80.3% 0.00 in 879 W/m2
12:49 84.7 °F 77.6 °F 30.00 in WNW 0.6 mph 4 mph 79.5% 0.00 in 893 W/m2
12:54 85.2 °F 77.4 °F 30.00 in WNW 1.4 mph 7 mph 77.8% 0.00 in 909 W/m2
12:59 85.7 °F 78.2 °F 30.00 in NW 0.5 mph 7 mph 78.4% 0.00 in 895 W/m2
13:04 86.1 °F 77.2 °F 30.00 in WNW 4.4 mph 8 mph 74.9% 0.00 in 949 W/m2
13:09 86.2 °F 77 °F 30.00 in WSW 1 mph 8 mph 74.1% 0.00 in 949 W/m2
13:14 86.5 °F 77 °F 30.00 in West 0.1 mph 8 mph 73.5% 0.00 in 707 W/m2
13:19 86.7 °F 77.7 °F 29.99 in NW 1.2 mph 8 mph 74.6% 0.00 in 1111 W/m2
13:24 87.2 °F 77.5 °F 29.99 in WNW 3.3 mph 10 mph 73% 0.00 in 1111 W/m2
13:29 87.2 °F 76.1 °F 29.99 in WNW 3.1 mph 10 mph 69.7% 0.00 in 264 W/m2
13:34 87 °F 75.5 °F 29.99 in NW 3.1 mph 10 mph 68.8% 0.00 in 432 W/m2
13:39 86.8 °F 75.1 °F 29.99 in NW 2.2 mph 9 mph 68.3% 0.00 in 559 W/m2
13:44 86.7 °F 75.5 °F 29.99 in WNW 2.7 mph 11 mph 69.4% 0.00 in 267 W/m2
13:49 86.5 °F 74.7 °F 29.99 in WNW 3.6 mph 11 mph 68% 0.00 in 316 W/m2
13:54 86.3 °F 74.3 °F 29.99 in West 2.4 mph 11 mph 67.5% 0.00 in 380 W/m2
13:59 86.3 °F 74.4 °F 29.99 in West 1.3 mph 11 mph 67.8% 0.00 in 522 W/m2
14:04 86.5 °F 75.1 °F 29.99 in WNW 1 mph 11 mph 68.8% 0.00 in 464 W/m2
14:09 86.8 °F 75.1 °F 29.99 in West 2.5 mph 6 mph 68.2% 0.00 in 306 W/m2
14:14 87 °F 74.8 °F 29.99 in WNW 1.6 mph 6 mph 67.1% 0.00 in 276 W/m2
14:19 87 °F 74.8 °F 29.99 in WNW 1.7 mph 6 mph 67.1% 0.00 in 264 W/m2
14:24 87 °F 75.2 °F 29.99 in WNW 0.9 mph 6 mph 68% 0.00 in 601 W/m2
14:29 87.4 °F 75.6 °F 29.99 in WNW 0.8 mph 6 mph 68% 0.00 in 991 W/m2
14:34 88.1 °F 75.7 °F 29.99 in WSW 2.5 mph 7 mph 67% 0.00 in 984 W/m2
14:39 88.7 °F 74.4 °F 29.98 in WSW 3.5 mph 7 mph 62.9% 0.00 in 946 W/m2
14:44 88.7 °F 74.1 °F 29.98 in West 2.5 mph 7 mph 62.2% 0.00 in 262 W/m2
14:49 88.4 °F 74 °F 29.98 in WNW 1.1 mph 7 mph 62.5% 0.00 in 244 W/m2
14:54 88.2 °F 74.9 °F 29.98 in West 1.6 mph 7 mph 65% 0.00 in 214 W/m2
14:59 87.9 °F 74.6 °F 29.98 in West 0.4 mph 7 mph 64.8% 0.00 in 200 W/m2
15:04 87.7 °F 74.5 °F 29.98 in West 1.4 mph 7 mph 65% 0.00 in 197 W/m2
15:09 87.5 °F 74.5 °F 29.98 in West 0.1 mph 4 mph 65.5% 0.00 in 290 W/m2
15:14 87.5 °F 75 °F 29.98 in Calm   4 mph 66.5% 0.00 in 367 W/m2
15:19 87.6 °F 75.7 °F 29.98 in West 0.7 mph 4 mph 67.8% 0.00 in 353 W/m2
15:24 87.8 °F 75.3 °F 29.98 in West 0.3 mph 4 mph 66.6% 0.00 in 858 W/m2
15:29 88.2 °F 74.9 °F 29.98 in West 0.2 mph 4 mph 64.9% 0.00 in 802 W/m2
15:34 88.7 °F 74.8 °F 29.98 in West 1.4 mph 5 mph 63.7% 0.00 in 726 W/m2
15:39 89.1 °F 74.7 °F 29.98 in WSW 2.4 mph 7 mph 62.6% 0.00 in 737 W/m2
15:44 89.5 °F 74.4 °F 29.97 in WSW 0.7 mph 7 mph 61.4% 0.00 in 737 W/m2
15:49 89.3 °F 74.1 °F 29.97 in WSW 0.2 mph 7 mph 60.9% 0.00 in 105 W/m2
15:54 89 °F 74.7 °F 29.97 in West 2.5 mph 7 mph 62.8% 0.00 in 105 W/m2
15:59 88.5 °F 74.3 °F 29.97 in West 0.8 mph 7 mph 62.8% 0.00 in 97 W/m2
16:09 87.7 °F 74.7 °F 29.97 in West 1.2 mph 6 mph 65.5% 0.00 in 116 W/m2
16:14 87.3 °F 74.5 °F 29.97 in West 0.8 mph 6 mph 65.9% 0.00 in 116 W/m2
16:19 87 °F 74.6 °F 29.97 in WNW 1.6 mph 6 mph 66.7% 0.00 in 102 W/m2
16:24 86.7 °F 74.1 °F 29.98 in WNW 3.5 mph 9 mph 66.2% 0.00 in 90 W/m2
16:29 86.2 °F 73.8 °F 29.98 in NW 1.5 mph 9 mph 66.7% 0.00 in 130 W/m2
16:34 85.9 °F 74.2 °F 29.98 in WNW 2.8 mph 9 mph 68.1% 0.00 in 130 W/m2
16:39 85.6 °F 73.8 °F 29.98 in WNW 1.5 mph 7 mph 68.1% 0.00 in 142 W/m2
16:44 85.4 °F 74.1 °F 29.98 in NW 1.4 mph 7 mph 69% 0.00 in 172 W/m2
16:49 85.6 °F 74.2 °F 29.98 in NW 3.5 mph 9 mph 69% 0.00 in 167 W/m2
16:54 85.9 °F 73.9 °F 29.98 in WNW 3.9 mph 13 mph 67.6% 0.00 in 139 W/m2
16:59 86.1 °F 73 °F 29.98 in NW 4.9 mph 13 mph 65.2% 0.00 in 105 W/m2
17:04 85.9 °F 72.8 °F 29.98 in WNW 3.9 mph 13 mph 65.1% 0.00 in 127 W/m2
17:09 85.6 °F 72.6 °F 29.98 in NW 3.6 mph 10 mph 65.4% 0.00 in 137 W/m2
17:14 85.3 °F 72.6 °F 29.98 in NW 1.7 mph 10 mph 65.9% 0.00 in 144 W/m2
17:19 85.3 °F 72.3 °F 29.99 in NW 2.8 mph 10 mph 65.2% 0.00 in 95 W/m2
17:24 85.4 °F 72 °F 29.99 in WNW 2.8 mph 10 mph 64.3% 0.00 in 47 W/m2
17:29 85.5 °F 72.2 °F 29.98 in NW 2.9 mph 12 mph 64.5% 0.00 in 40 W/m2
17:34 85.5 °F 71.3 °F 29.98 in WNW 4.7 mph 12 mph 62.8% 0.00 in 39 W/m2
17:39 85.4 °F 70.9 °F 29.98 in NW 3.1 mph 10 mph 62% 0.00 in 39 W/m2
17:44 85.3 °F 70.8 °F 29.99 in NW 3.4 mph 15 mph 61.9% 0.00 in 39 W/m2
17:49 85.2 °F 70 °F 29.99 in NNW 3.4 mph 15 mph 60.4% 0.00 in 37 W/m2
17:54 84.9 °F 67.8 °F 29.99 in NW 5.7 mph 15 mph 56.7% 0.00 in 37 W/m2
17:59 84.4 °F 66.8 °F 29.99 in NW 4.6 mph 15 mph 55.7% 0.00 in 37 W/m2
18:04 84 °F 66.3 °F 29.99 in NW 4.6 mph 15 mph 55.3% 0.00 in 32 W/m2
18:09 83.7 °F 65.2 °F 30.00 in NW 4.4 mph 11 mph 53.9% 0.00 in 32 W/m2
18:14 83.3 °F 63.7 °F 30.00 in NW 4.8 mph 11 mph 51.7% 0.00 in 30 W/m2
18:19 82.9 °F 62.7 °F 30.00 in NW 5 mph 11 mph 50.6% 0.00 in 30 W/m2
18:24 82.5 °F 62.1 °F 30.00 in NW 5 mph 17 mph 50.1% 0.00 in 28 W/m2
18:29 82.1 °F 61.5 °F 30.00 in NW 3 mph 17 mph 49.7% 0.00 in 26 W/m2
18:34 81.8 °F 61.4 °F 30.00 in NW 2.3 mph 17 mph 50% 0.00 in 26 W/m2
18:39 81.6 °F 61.5 °F 30.00 in WNW 2.2 mph 9 mph 50.5% 0.00 in 25 W/m2
18:44 81.4 °F 61.2 °F 30.01 in NW 3 mph 9 mph 50.4% 0.00 in 23 W/m2
18:49 81.2 °F 61 °F 30.01 in NW 3.6 mph 9 mph 50.3% 0.00 in 23 W/m2
18:54 80.9 °F 60 °F 30.01 in WNW 4.1 mph 11 mph 49% 0.00 in 21 W/m2
18:59 80.6 °F 58.7 °F 30.01 in WNW 4.4 mph 11 mph 47.2% 0.00 in 19 W/m2
19:04 80.4 °F 58.1 °F 30.01 in NW 3.6 mph 11 mph 46.7% 0.00 in 19 W/m2
19:09 80.1 °F 58.1 °F 30.01 in WNW 3.8 mph 10 mph 47% 0.00 in 18 W/m2
19:14 79.9 °F 58.4 °F 30.01 in WNW 3.3 mph 10 mph 47.8% 0.00 in 16 W/m2
19:19 79.7 °F 58.9 °F 30.01 in WNW 1.6 mph 10 mph 49% 0.00 in 14 W/m2
19:24 79.4 °F 59.5 °F 30.02 in NW 1.5 mph 10 mph 50.7% 0.00 in 12 W/m2
19:29 79.1 °F 58.9 °F 30.02 in NW 1.6 mph 10 mph 50% 0.00 in 11 W/m2
19:34 78.8 °F 58.6 °F 30.02 in NW 1.6 mph 10 mph 50% 0.00 in 9 W/m2
19:39 78.6 °F 58.9 °F 30.02 in NW 2.5 mph 10 mph 51% 0.00 in 7 W/m2
19:44 78.2 °F 58.6 °F 30.03 in NNW 1.1 mph 10 mph 51% 0.00 in 0 W/m2
19:49 77.9 °F 58.8 °F 30.03 in NW 1.2 mph 10 mph 51.8% 0.00 in 0 W/m2
19:54 77.6 °F 58.6 °F 30.03 in NW 1 mph 10 mph 52% 0.00 in 0 W/m2
19:59 77.3 °F 58.8 °F 30.03 in NW 0.9 mph 10 mph 52.8% 0.00 in 0 W/m2
20:00 77.2 °F 58.8 °F 30.03 in Calm   10 mph 53% 0.00 in 0 W/m2
20:09 76.8 °F 58.6 °F 30.04 in NW 0.6 mph 3 mph 53.4% 0.00 in 0 W/m2
20:14 76.6 °F 58.7 °F 30.04 in NW 0.4 mph 3 mph 54% 0.00 in 0 W/m2
20:19 76.4 °F 58.6 °F 30.04 in Calm   3 mph 54.2% 0.00 in 0 W/m2
20:24 76.2 °F 58.8 °F 30.04 in Calm   3 mph 55% 0.00 in 0 W/m2
20:29 76 °F 58.7 °F 30.05 in Calm   3 mph 55% 0.00 in 0 W/m2
20:34 75.8 °F 58.9 °F 30.05 in Calm   3 mph 55.7% 0.00 in 0 W/m2
20:39 75.6 °F 58.9 °F 30.05 in Calm     56% 0.00 in 0 W/m2
20:44 75.5 °F 59.2 °F 30.05 in Calm     57% 0.00 in 0 W/m2
20:49 75.3 °F 59.6 °F 30.06 in NW 0.1 mph 1 mph 58.2% 0.00 in 0 W/m2
20:54 75.2 °F 59.9 °F 30.06 in Calm   1 mph 59% 0.00 in 0 W/m2
20:59 75.1 °F 60 °F 30.07 in Calm   1 mph 59.5% 0.00 in 0 W/m2
21:04 74.9 °F 60.1 °F 30.07 in Calm   1 mph 60% 0.00 in 0 W/m2
21:09 74.8 °F 60.3 °F 30.07 in Calm     60.5% 0.00 in 0 W/m2
21:14 74.7 °F 60.3 °F 30.07 in Calm     61% 0.00 in 0 W/m2
21:19 74.5 °F 60.5 °F 30.08 in Calm     61.7% 0.00 in 0 W/m2
21:24 74.4 °F 60.6 °F 30.08 in Calm     62% 0.00 in 0 W/m2
21:29 74.3 °F 60.8 °F 30.08 in Calm     62.8% 0.00 in 0 W/m2
21:34 74.2 °F 61 °F 30.08 in NW 0.2 mph 3 mph 63.4% 0.00 in 0 W/m2
21:39 74.1 °F 61.3 °F 30.08 in Calm   3 mph 64.3% 0.00 in 0 W/m2
21:44 74 °F 61.5 °F 30.08 in Calm   3 mph 65% 0.00 in 0 W/m2
21:49 73.9 °F 61.6 °F 30.08 in NW 0.1 mph 3 mph 65.4% 0.00 in 0 W/m2
21:54 73.9 °F 61.8 °F 30.08 in NW 0.2 mph 3 mph 66% 0.00 in 0 W/m2
21:59 73.8 °F 61.7 °F 30.08 in NW 0.1 mph 3 mph 66% 0.00 in 0 W/m2
22:04 73.7 °F 61.6 °F 30.08 in Calm   3 mph 66% 0.00 in 0 W/m2
22:09 73.6 °F 61.7 °F 30.09 in NW 0.5 mph 4 mph 66.3% 0.00 in 0 W/m2
22:14 73.5 °F 61.6 °F 30.09 in Calm   4 mph 66.2% 0.00 in 0 W/m2
22:19 73.4 °F 61.4 °F 30.09 in NW 0.2 mph 4 mph 66% 0.00 in 0 W/m2
22:24 73.3 °F 61.4 °F 30.09 in NW 0.2 mph 5 mph 66.2% 0.00 in 0 W/m2
22:29 73.3 °F 61.3 °F 30.09 in Calm   5 mph 66% 0.00 in 0 W/m2
22:34 73.2 °F 61.3 °F 30.09 in NW 0.4 mph 5 mph 66.3% 0.00 in 0 W/m2
22:39 73.1 °F 61.2 °F 30.09 in NW 0.2 mph 4 mph 66.4% 0.00 in 0 W/m2
22:44 73 °F 61 °F 30.09 in NW 0.2 mph 4 mph 66% 0.00 in 0 W/m2
22:49 72.9 °F 60.9 °F 30.09 in NW 0.5 mph 4 mph 66.1% 0.00 in 0 W/m2
22:54 72.8 °F 60.9 °F 30.09 in NW 0.1 mph 4 mph 66.1% 0.00 in 0 W/m2
22:59 72.7 °F 60.6 °F 30.10 in NW 0.7 mph 4 mph 65.7% 0.00 in 0 W/m2
23:04 72.6 °F 60.2 °F 30.10 in NW 0.1 mph 4 mph 65% 0.00 in 0 W/m2
23:09 72.5 °F 59.8 °F 30.10 in NW 1.7 mph 5 mph 64.3% 0.00 in 0 W/m2
23:14 72.5 °F 59.6 °F 30.10 in NW 0.9 mph 6 mph 64% 0.00 in 0 W/m2
23:19 72.4 °F 59.2 °F 30.10 in NW 1.6 mph 8 mph 63.2% 0.00 in 0 W/m2
23:24 72.4 °F 59.1 °F 30.10 in NW 0.8 mph 8 mph 63% 0.00 in 0 W/m2
23:29 72.4 °F 59 °F 30.10 in NW 0.7 mph 8 mph 62.8% 0.00 in 0 W/m2
23:34 72.4 °F 58.7 °F 30.10 in NW 0.3 mph 8 mph 62% 0.00 in 0 W/m2
23:39 72.4 °F 58.7 °F 30.10 in NW 0.7 mph 6 mph 62% 0.00 in 0 W/m2
23:44 72.4 °F 58.6 °F 30.10 in NW 0.7 mph 6 mph 61.8% 0.00 in 0 W/m2
23:49 72.3 °F 58.1 °F 30.10 in NW 1 mph 6 mph 61% 0.00 in 0 W/m2
23:54 72.3 °F 58.3 °F 30.11 in NW 0.4 mph 6 mph 61.4% 0.00 in 0 W/m2
23:59 72.2 °F 58.2 °F 30.10 in NW 0.5 mph 6 mph 61.3% 0.00 in 0 W/m2
Hartford County Weather
Compliments of Weather Underground - 2 mb